sensor_id;sensor_type;location;lat;lon;timestamp;P1;durP1;ratioP1;P2;durP2;ratioP2
6987;SDS011;3534;49.960;8.018;2022-09-01T00:00:23;2.60;;;1.80;;
6987;SDS011;3534;49.960;8.018;2022-09-01T00:02:52;3.10;;;1.87;;
6987;SDS011;3534;49.960;8.018;2022-09-01T00:05:19;4.83;;;1.73;;
6987;SDS011;3534;49.960;8.018;2022-09-01T00:07:46;2.10;;;1.77;;
6987;SDS011;3534;49.960;8.018;2022-09-01T00:10:15;3.90;;;2.10;;
6987;SDS011;3534;49.960;8.018;2022-09-01T00:12:42;2.30;;;2.10;;
6987;SDS011;3534;49.960;8.018;2022-09-01T00:15:10;4.03;;;2.20;;
6987;SDS011;3534;49.960;8.018;2022-09-01T00:17:37;2.80;;;2.00;;
6987;SDS011;3534;49.960;8.018;2022-09-01T00:20:04;7.83;;;1.90;;
6987;SDS011;3534;49.960;8.018;2022-09-01T00:22:31;3.00;;;2.37;;
6987;SDS011;3534;49.960;8.018;2022-09-01T00:24:58;2.07;;;1.97;;
6987;SDS011;3534;49.960;8.018;2022-09-01T00:27:27;3.73;;;2.00;;
6987;SDS011;3534;49.960;8.018;2022-09-01T00:29:54;2.60;;;2.07;;
6987;SDS011;3534;49.960;8.018;2022-09-01T00:32:20;2.03;;;1.93;;
6987;SDS011;3534;49.960;8.018;2022-09-01T00:34:47;3.93;;;2.40;;
6987;SDS011;3534;49.960;8.018;2022-09-01T00:37:14;3.77;;;1.93;;
6987;SDS011;3534;49.960;8.018;2022-09-01T00:39:41;2.47;;;2.13;;
6987;SDS011;3534;49.960;8.018;2022-09-01T00:42:07;1.70;;;1.60;;
6987;SDS011;3534;49.960;8.018;2022-09-01T00:44:36;2.30;;;2.13;;
6987;SDS011;3534;49.960;8.018;2022-09-01T00:47:03;2.60;;;1.90;;
6987;SDS011;3534;49.960;8.018;2022-09-01T00:49:31;2.30;;;1.50;;
6987;SDS011;3534;49.960;8.018;2022-09-01T00:52:04;1.87;;;1.77;;
6987;SDS011;3534;49.960;8.018;2022-09-01T00:54:35;4.90;;;2.00;;
6987;SDS011;3534;49.960;8.018;2022-09-01T00:57:04;3.40;;;1.87;;
6987;SDS011;3534;49.960;8.018;2022-09-01T00:59:33;1.80;;;1.70;;
6987;SDS011;3534;49.960;8.018;2022-09-01T01:02:04;2.43;;;1.50;;
6987;SDS011;3534;49.960;8.018;2022-09-01T01:04:30;2.27;;;1.67;;
6987;SDS011;3534;49.960;8.018;2022-09-01T01:06:58;3.30;;;1.90;;
6987;SDS011;3534;49.960;8.018;2022-09-01T01:09:27;1.60;;;1.33;;
6987;SDS011;3534;49.960;8.018;2022-09-01T01:11:55;2.53;;;1.83;;
6987;SDS011;3534;49.960;8.018;2022-09-01T01:14:25;2.00;;;1.90;;
6987;SDS011;3534;49.960;8.018;2022-09-01T01:16:58;3.17;;;2.20;;
6987;SDS011;3534;49.960;8.018;2022-09-01T01:19:29;4.83;;;1.53;;
6987;SDS011;3534;49.960;8.018;2022-09-01T01:22:25;1.60;;;1.50;;
6987;SDS011;3534;49.960;8.018;2022-09-01T01:25:16;1.57;;;1.47;;
6987;SDS011;3534;49.960;8.018;2022-09-01T01:27:46;3.33;;;2.10;;
6987;SDS011;3534;49.960;8.018;2022-09-01T01:30:14;2.43;;;1.43;;
6987;SDS011;3534;49.960;8.018;2022-09-01T01:32:43;2.03;;;1.83;;
6987;SDS011;3534;49.960;8.018;2022-09-01T01:35:12;1.80;;;1.70;;
6987;SDS011;3534;49.960;8.018;2022-09-01T01:37:40;1.77;;;1.63;;
6987;SDS011;3534;49.960;8.018;2022-09-01T01:40:09;4.63;;;2.07;;
6987;SDS011;3534;49.960;8.018;2022-09-01T01:42:41;2.67;;;1.87;;
6987;SDS011;3534;49.960;8.018;2022-09-01T01:45:10;1.70;;;1.60;;
6987;SDS011;3534;49.960;8.018;2022-09-01T01:47:40;2.37;;;1.80;;
6987;SDS011;3534;49.960;8.018;2022-09-01T01:50:08;2.13;;;2.00;;
6987;SDS011;3534;49.960;8.018;2022-09-01T01:52:36;2.47;;;1.63;;
6987;SDS011;3534;49.960;8.018;2022-09-01T01:55:03;1.80;;;1.70;;
6987;SDS011;3534;49.960;8.018;2022-09-01T01:57:35;2.60;;;2.10;;
6987;SDS011;3534;49.960;8.018;2022-09-01T02:00:05;1.67;;;1.57;;
6987;SDS011;3534;49.960;8.018;2022-09-01T02:02:33;1.67;;;1.57;;
6987;SDS011;3534;49.960;8.018;2022-09-01T02:05:02;2.23;;;1.50;;
6987;SDS011;3534;49.960;8.018;2022-09-01T02:07:29;4.57;;;1.87;;
6987;SDS011;3534;49.960;8.018;2022-09-01T02:09:56;1.90;;;1.80;;
6987;SDS011;3534;49.960;8.018;2022-09-01T02:12:23;2.10;;;1.60;;
6987;SDS011;3534;49.960;8.018;2022-09-01T02:14:50;6.03;;;1.70;;
6987;SDS011;3534;49.960;8.018;2022-09-01T02:17:20;2.30;;;1.70;;
6987;SDS011;3534;49.960;8.018;2022-09-01T02:19:47;1.43;;;1.33;;
6987;SDS011;3534;49.960;8.018;2022-09-01T02:22:13;2.20;;;2.00;;
6987;SDS011;3534;49.960;8.018;2022-09-01T02:24:43;1.87;;;1.50;;
6987;SDS011;3534;49.960;8.018;2022-09-01T02:27:16;2.13;;;1.90;;
6987;SDS011;3534;49.960;8.018;2022-09-01T02:29:49;2.70;;;1.80;;
6987;SDS011;3534;49.960;8.018;2022-09-01T02:32:20;2.50;;;2.30;;
6987;SDS011;3534;49.960;8.018;2022-09-01T02:34:47;1.90;;;1.63;;
6987;SDS011;3534;49.960;8.018;2022-09-01T02:37:17;1.80;;;1.70;;
6987;SDS011;3534;49.960;8.018;2022-09-01T02:39:49;1.83;;;1.73;;
6987;SDS011;3534;49.960;8.018;2022-09-01T02:42:16;3.03;;;1.97;;
6987;SDS011;3534;49.960;8.018;2022-09-01T02:44:51;2.37;;;1.80;;
6987;SDS011;3534;49.960;8.018;2022-09-01T02:47:17;3.83;;;2.43;;
6987;SDS011;3534;49.960;8.018;2022-09-01T02:49:45;2.20;;;2.00;;
6987;SDS011;3534;49.960;8.018;2022-09-01T02:52:12;2.33;;;1.83;;
6987;SDS011;3534;49.960;8.018;2022-09-01T02:54:41;5.47;;;1.83;;
6987;SDS011;3534;49.960;8.018;2022-09-01T02:57:10;4.07;;;2.63;;
6987;SDS011;3534;49.960;8.018;2022-09-01T02:59:37;3.43;;;2.20;;
6987;SDS011;3534;49.960;8.018;2022-09-01T03:02:06;3.43;;;1.63;;
6987;SDS011;3534;49.960;8.018;2022-09-01T03:04:33;1.93;;;1.83;;
6987;SDS011;3534;49.960;8.018;2022-09-01T03:07:01;10.50;;;2.93;;
6987;SDS011;3534;49.960;8.018;2022-09-01T03:09:28;2.70;;;2.17;;
6987;SDS011;3534;49.960;8.018;2022-09-01T03:11:56;3.83;;;2.07;;
6987;SDS011;3534;49.960;8.018;2022-09-01T03:14:24;2.63;;;1.67;;
6987;SDS011;3534;49.960;8.018;2022-09-01T03:16:51;2.67;;;2.13;;
6987;SDS011;3534;49.960;8.018;2022-09-01T03:19:17;3.13;;;1.63;;
6987;SDS011;3534;49.960;8.018;2022-09-01T03:21:45;3.23;;;1.90;;
6987;SDS011;3534;49.960;8.018;2022-09-01T03:24:14;1.90;;;1.80;;
6987;SDS011;3534;49.960;8.018;2022-09-01T03:26:42;3.07;;;2.17;;
6987;SDS011;3534;49.960;8.018;2022-09-01T03:29:11;5.93;;;1.80;;
6987;SDS011;3534;49.960;8.018;2022-09-01T03:31:39;3.57;;;1.97;;
6987;SDS011;3534;49.960;8.018;2022-09-01T03:34:06;1.63;;;1.53;;
6987;SDS011;3534;49.960;8.018;2022-09-01T03:36:35;2.53;;;2.33;;
6987;SDS011;3534;49.960;8.018;2022-09-01T03:39:03;2.20;;;2.00;;
6987;SDS011;3534;49.960;8.018;2022-09-01T03:41:32;3.57;;;1.83;;
6987;SDS011;3534;49.960;8.018;2022-09-01T03:44:02;1.80;;;1.70;;
6987;SDS011;3534;49.960;8.018;2022-09-01T03:46:29;1.80;;;1.70;;
6987;SDS011;3534;49.960;8.018;2022-09-01T03:48:58;6.17;;;2.00;;
6987;SDS011;3534;49.960;8.018;2022-09-01T03:51:26;3.60;;;1.80;;
6987;SDS011;3534;49.960;8.018;2022-09-01T03:53:54;6.00;;;1.80;;
6987;SDS011;3534;49.960;8.018;2022-09-01T03:56:23;1.70;;;1.60;;
6987;SDS011;3534;49.960;8.018;2022-09-01T03:58:52;3.00;;;1.93;;
6987;SDS011;3534;49.960;8.018;2022-09-01T04:01:21;5.43;;;1.80;;
6987;SDS011;3534;49.960;8.018;2022-09-01T04:03:48;1.63;;;1.53;;
6987;SDS011;3534;49.960;8.018;2022-09-01T04:06:16;5.47;;;2.00;;
6987;SDS011;3534;49.960;8.018;2022-09-01T04:08:43;1.57;;;1.47;;
6987;SDS011;3534;49.960;8.018;2022-09-01T04:11:11;2.37;;;1.70;;
6987;SDS011;3534;49.960;8.018;2022-09-01T04:13:40;2.50;;;1.70;;
6987;SDS011;3534;49.960;8.018;2022-09-01T04:16:16;3.03;;;2.10;;
6987;SDS011;3534;49.960;8.018;2022-09-01T04:18:57;3.37;;;2.60;;
6987;SDS011;3534;49.960;8.018;2022-09-01T04:21:25;2.93;;;2.63;;
6987;SDS011;3534;49.960;8.018;2022-09-01T04:23:51;2.50;;;2.30;;
6987;SDS011;3534;49.960;8.018;2022-09-01T04:26:22;3.20;;;2.90;;
6987;SDS011;3534;49.960;8.018;2022-09-01T04:28:50;3.57;;;3.20;;
6987;SDS011;3534;49.960;8.018;2022-09-01T04:31:20;5.20;;;4.10;;
6987;SDS011;3534;49.960;8.018;2022-09-01T04:33:48;4.17;;;3.77;;
6987;SDS011;3534;49.960;8.018;2022-09-01T04:36:17;3.67;;;3.37;;
6987;SDS011;3534;49.960;8.018;2022-09-01T04:38:48;5.33;;;3.27;;
6987;SDS011;3534;49.960;8.018;2022-09-01T04:41:18;7.50;;;3.53;;
6987;SDS011;3534;49.960;8.018;2022-09-01T04:43:46;6.80;;;3.37;;
6987;SDS011;3534;49.960;8.018;2022-09-01T04:46:16;4.77;;;3.70;;
6987;SDS011;3534;49.960;8.018;2022-09-01T04:48:46;4.90;;;3.83;;
6987;SDS011;3534;49.960;8.018;2022-09-01T04:51:13;3.93;;;2.93;;
6987;SDS011;3534;49.960;8.018;2022-09-01T04:53:42;3.13;;;2.50;;
6987;SDS011;3534;49.960;8.018;2022-09-01T04:56:12;3.57;;;2.50;;
6987;SDS011;3534;49.960;8.018;2022-09-01T04:58:42;7.40;;;2.90;;
6987;SDS011;3534;49.960;8.018;2022-09-01T05:01:12;5.10;;;3.10;;
6987;SDS011;3534;49.960;8.018;2022-09-01T05:03:40;3.80;;;2.50;;
6987;SDS011;3534;49.960;8.018;2022-09-01T05:06:12;5.03;;;3.07;;
6987;SDS011;3534;49.960;8.018;2022-09-01T05:08:41;3.20;;;2.90;;
6987;SDS011;3534;49.960;8.018;2022-09-01T05:11:09;4.23;;;3.07;;
6987;SDS011;3534;49.960;8.018;2022-09-01T05:13:38;3.70;;;3.37;;
6987;SDS011;3534;49.960;8.018;2022-09-01T05:16:06;7.43;;;3.53;;
6987;SDS011;3534;49.960;8.018;2022-09-01T05:18:36;4.70;;;3.37;;
6987;SDS011;3534;49.960;8.018;2022-09-01T05:21:05;4.40;;;3.60;;
6987;SDS011;3534;49.960;8.018;2022-09-01T05:23:36;3.30;;;3.00;;
6987;SDS011;3534;49.960;8.018;2022-09-01T05:26:05;5.00;;;4.10;;
6987;SDS011;3534;49.960;8.018;2022-09-01T05:28:42;8.03;;;4.20;;
6987;SDS011;3534;49.960;8.018;2022-09-01T05:31:09;4.97;;;4.00;;
6987;SDS011;3534;49.960;8.018;2022-09-01T05:33:36;7.70;;;3.90;;
6987;SDS011;3534;49.960;8.018;2022-09-01T05:36:09;12.97;;;3.60;;
6987;SDS011;3534;49.960;8.018;2022-09-01T05:38:38;4.00;;;3.60;;
6987;SDS011;3534;49.960;8.018;2022-09-01T05:41:06;10.97;;;3.50;;
6987;SDS011;3534;49.960;8.018;2022-09-01T05:43:38;8.53;;;3.40;;
6987;SDS011;3534;49.960;8.018;2022-09-01T05:46:09;5.77;;;3.60;;
6987;SDS011;3534;49.960;8.018;2022-09-01T05:48:36;5.03;;;3.17;;
6987;SDS011;3534;49.960;8.018;2022-09-01T05:51:05;9.57;;;2.97;;
6987;SDS011;3534;49.960;8.018;2022-09-01T05:53:32;16.23;;;3.77;;
6987;SDS011;3534;49.960;8.018;2022-09-01T05:56:04;6.50;;;2.37;;
6987;SDS011;3534;49.960;8.018;2022-09-01T05:58:33;6.93;;;2.93;;
6987;SDS011;3534;49.960;8.018;2022-09-01T06:01:02;7.97;;;2.97;;
6987;SDS011;3534;49.960;8.018;2022-09-01T06:03:29;7.23;;;2.70;;
6987;SDS011;3534;49.960;8.018;2022-09-01T06:06:00;3.13;;;2.80;;
6987;SDS011;3534;49.960;8.018;2022-09-01T06:08:29;13.70;;;2.83;;
6987;SDS011;3534;49.960;8.018;2022-09-01T06:10:56;4.27;;;2.83;;
6987;SDS011;3534;49.960;8.018;2022-09-01T06:13:24;6.00;;;3.30;;
6987;SDS011;3534;49.960;8.018;2022-09-01T06:15:51;4.27;;;3.30;;
6987;SDS011;3534;49.960;8.018;2022-09-01T06:18:18;14.13;;;3.90;;
6987;SDS011;3534;49.960;8.018;2022-09-01T06:20:47;4.30;;;3.60;;
6987;SDS011;3534;49.960;8.018;2022-09-01T06:23:15;3.30;;;3.10;;
6987;SDS011;3534;49.960;8.018;2022-09-01T06:25:42;5.40;;;2.80;;
6987;SDS011;3534;49.960;8.018;2022-09-01T06:28:11;18.53;;;2.90;;
6987;SDS011;3534;49.960;8.018;2022-09-01T06:30:40;7.27;;;3.30;;
6987;SDS011;3534;49.960;8.018;2022-09-01T06:33:09;3.00;;;2.10;;
6987;SDS011;3534;49.960;8.018;2022-09-01T06:35:38;2.33;;;2.13;;
6987;SDS011;3534;49.960;8.018;2022-09-01T06:38:06;4.03;;;2.40;;
6987;SDS011;3534;49.960;8.018;2022-09-01T06:40:33;4.23;;;2.03;;
6987;SDS011;3534;49.960;8.018;2022-09-01T06:43:06;2.27;;;2.07;;
6987;SDS011;3534;49.960;8.018;2022-09-01T06:45:39;2.63;;;2.30;;
6987;SDS011;3534;49.960;8.018;2022-09-01T06:48:09;6.17;;;3.03;;
6987;SDS011;3534;49.960;8.018;2022-09-01T06:50:40;4.30;;;2.57;;
6987;SDS011;3534;49.960;8.018;2022-09-01T06:53:07;10.73;;;2.70;;
6987;SDS011;3534;49.960;8.018;2022-09-01T06:55:35;2.57;;;2.30;;
6987;SDS011;3534;49.960;8.018;2022-09-01T06:58:03;3.07;;;2.10;;
6987;SDS011;3534;49.960;8.018;2022-09-01T07:00:31;6.90;;;2.60;;
6987;SDS011;3534;49.960;8.018;2022-09-01T07:03:00;4.20;;;2.07;;
6987;SDS011;3534;49.960;8.018;2022-09-01T07:05:33;2.30;;;2.10;;
6987;SDS011;3534;49.960;8.018;2022-09-01T07:08:03;4.50;;;2.37;;
6987;SDS011;3534;49.960;8.018;2022-09-01T07:10:37;4.57;;;1.93;;
6987;SDS011;3534;49.960;8.018;2022-09-01T07:13:09;11.30;;;2.43;;
6987;SDS011;3534;49.960;8.018;2022-09-01T07:15:44;4.93;;;2.17;;
6987;SDS011;3534;49.960;8.018;2022-09-01T07:18:15;4.77;;;2.53;;
6987;SDS011;3534;49.960;8.018;2022-09-01T07:20:43;2.00;;;1.80;;
6987;SDS011;3534;49.960;8.018;2022-09-01T07:23:12;3.97;;;2.17;;
6987;SDS011;3534;49.960;8.018;2022-09-01T07:25:41;3.70;;;2.13;;
6987;SDS011;3534;49.960;8.018;2022-09-01T07:28:09;3.57;;;2.00;;
6987;SDS011;3534;49.960;8.018;2022-09-01T07:30:39;2.40;;;2.20;;
6987;SDS011;3534;49.960;8.018;2022-09-01T07:33:07;4.20;;;1.90;;
6987;SDS011;3534;49.960;8.018;2022-09-01T07:35:37;2.60;;;2.00;;
6987;SDS011;3534;49.960;8.018;2022-09-01T07:38:05;5.27;;;2.10;;
6987;SDS011;3534;49.960;8.018;2022-09-01T07:40:32;2.93;;;1.90;;
6987;SDS011;3534;49.960;8.018;2022-09-01T07:43:02;2.00;;;1.80;;
6987;SDS011;3534;49.960;8.018;2022-09-01T07:45:32;2.50;;;1.77;;
6987;SDS011;3534;49.960;8.018;2022-09-01T07:48:01;3.13;;;2.00;;
6987;SDS011;3534;49.960;8.018;2022-09-01T07:50:30;2.23;;;2.07;;
6987;SDS011;3534;49.960;8.018;2022-09-01T07:52:59;10.33;;;2.40;;
6987;SDS011;3534;49.960;8.018;2022-09-01T07:55:26;6.90;;;2.33;;
6987;SDS011;3534;49.960;8.018;2022-09-01T07:57:53;3.77;;;2.60;;
6987;SDS011;3534;49.960;8.018;2022-09-01T08:00:20;2.87;;;1.77;;
6987;SDS011;3534;49.960;8.018;2022-09-01T08:02:48;4.10;;;1.80;;
6987;SDS011;3534;49.960;8.018;2022-09-01T08:05:16;2.17;;;1.80;;
6987;SDS011;3534;49.960;8.018;2022-09-01T08:07:46;3.57;;;1.60;;
6987;SDS011;3534;49.960;8.018;2022-09-01T08:10:15;2.70;;;2.10;;
6987;SDS011;3534;49.960;8.018;2022-09-01T08:12:42;2.40;;;2.20;;
6987;SDS011;3534;49.960;8.018;2022-09-01T08:15:09;2.43;;;1.77;;
6987;SDS011;3534;49.960;8.018;2022-09-01T08:17:37;3.20;;;1.60;;
6987;SDS011;3534;49.960;8.018;2022-09-01T08:20:04;2.13;;;1.83;;
6987;SDS011;3534;49.960;8.018;2022-09-01T08:22:33;3.30;;;2.30;;
6987;SDS011;3534;49.960;8.018;2022-09-01T08:25:01;2.37;;;1.83;;
6987;SDS011;3534;49.960;8.018;2022-09-01T08:27:31;4.17;;;3.13;;
6987;SDS011;3534;49.960;8.018;2022-09-01T08:30:00;2.57;;;2.23;;
6987;SDS011;3534;49.960;8.018;2022-09-01T08:32:28;3.33;;;2.40;;
6987;SDS011;3534;49.960;8.018;2022-09-01T08:34:56;3.07;;;2.40;;
6987;SDS011;3534;49.960;8.018;2022-09-01T08:37:23;6.63;;;2.60;;
6987;SDS011;3534;49.960;8.018;2022-09-01T08:39:50;2.50;;;2.27;;
6987;SDS011;3534;49.960;8.018;2022-09-01T08:42:18;2.40;;;2.20;;
6987;SDS011;3534;49.960;8.018;2022-09-01T08:44:55;2.43;;;1.93;;
6987;SDS011;3534;49.960;8.018;2022-09-01T08:47:27;4.13;;;2.73;;
6987;SDS011;3534;49.960;8.018;2022-09-01T08:49:55;5.93;;;2.70;;
6987;SDS011;3534;49.960;8.018;2022-09-01T08:52:25;8.30;;;3.10;;
6987;SDS011;3534;49.960;8.018;2022-09-01T08:54:56;2.23;;;2.00;;
6987;SDS011;3534;49.960;8.018;2022-09-01T08:57:30;4.07;;;2.60;;
6987;SDS011;3534;49.960;8.018;2022-09-01T09:00:00;3.00;;;1.83;;
6987;SDS011;3534;49.960;8.018;2022-09-01T09:02:32;2.37;;;2.17;;
6987;SDS011;3534;49.960;8.018;2022-09-01T09:05:07;6.10;;;2.10;;
6987;SDS011;3534;49.960;8.018;2022-09-01T09:07:56;3.00;;;2.50;;
6987;SDS011;3534;49.960;8.018;2022-09-01T09:10:36;3.70;;;2.23;;
6987;SDS011;3534;49.960;8.018;2022-09-01T09:13:09;2.70;;;2.50;;
6987;SDS011;3534;49.960;8.018;2022-09-01T09:15:43;5.43;;;2.87;;
6987;SDS011;3534;49.960;8.018;2022-09-01T09:18:18;4.50;;;2.90;;
6987;SDS011;3534;49.960;8.018;2022-09-01T09:20:52;3.00;;;2.80;;
6987;SDS011;3534;49.960;8.018;2022-09-01T09:23:22;4.87;;;2.60;;
6987;SDS011;3534;49.960;8.018;2022-09-01T09:25:53;3.67;;;2.30;;
6987;SDS011;3534;49.960;8.018;2022-09-01T09:28:21;2.87;;;2.67;;
6987;SDS011;3534;49.960;8.018;2022-09-01T09:30:49;2.43;;;2.10;;
6987;SDS011;3534;49.960;8.018;2022-09-01T09:36:14;4.20;;;2.13;;
6987;SDS011;3534;49.960;8.018;2022-09-01T09:38:44;2.77;;;2.43;;
6987;SDS011;3534;49.960;8.018;2022-09-01T09:41:14;8.03;;;2.50;;
6987;SDS011;3534;49.960;8.018;2022-09-01T09:43:43;2.90;;;2.17;;
6987;SDS011;3534;49.960;8.018;2022-09-01T09:46:27;5.80;;;2.43;;
6987;SDS011;3534;49.960;8.018;2022-09-01T09:49:07;9.07;;;2.23;;
6987;SDS011;3534;49.960;8.018;2022-09-01T09:51:38;5.30;;;2.50;;
6987;SDS011;3534;49.960;8.018;2022-09-01T09:54:09;2.47;;;1.93;;
6987;SDS011;3534;49.960;8.018;2022-09-01T09:56:39;3.20;;;2.23;;
6987;SDS011;3534;49.960;8.018;2022-09-01T09:59:15;5.03;;;2.60;;
6987;SDS011;3534;49.960;8.018;2022-09-01T10:01:45;4.53;;;2.30;;
6987;SDS011;3534;49.960;8.018;2022-09-01T10:07:21;3.53;;;2.43;;
6987;SDS011;3534;49.960;8.018;2022-09-01T10:09:50;3.93;;;2.17;;
6987;SDS011;3534;49.960;8.018;2022-09-01T10:12:18;4.60;;;2.40;;
6987;SDS011;3534;49.960;8.018;2022-09-01T10:14:47;3.53;;;2.73;;
6987;SDS011;3534;49.960;8.018;2022-09-01T10:17:19;2.30;;;2.10;;
6987;SDS011;3534;49.960;8.018;2022-09-01T10:19:50;7.93;;;2.27;;
6987;SDS011;3534;49.960;8.018;2022-09-01T10:22:19;5.53;;;2.10;;
6987;SDS011;3534;49.960;8.018;2022-09-01T10:24:47;6.80;;;2.40;;
6987;SDS011;3534;49.960;8.018;2022-09-01T10:27:15;3.90;;;2.00;;
6987;SDS011;3534;49.960;8.018;2022-09-01T10:29:46;6.57;;;2.20;;
6987;SDS011;3534;49.960;8.018;2022-09-01T10:32:17;3.13;;;2.60;;
6987;SDS011;3534;49.960;8.018;2022-09-01T10:34:49;7.53;;;2.37;;
6987;SDS011;3534;49.960;8.018;2022-09-01T10:37:16;5.47;;;2.90;;
6987;SDS011;3534;49.960;8.018;2022-09-01T10:42:35;7.57;;;2.37;;
6987;SDS011;3534;49.960;8.018;2022-09-01T10:45:02;3.43;;;2.27;;
6987;SDS011;3534;49.960;8.018;2022-09-01T10:47:31;2.60;;;2.40;;
6987;SDS011;3534;49.960;8.018;2022-09-01T10:50:02;4.60;;;2.47;;
6987;SDS011;3534;49.960;8.018;2022-09-01T10:55:21;4.87;;;2.17;;
6987;SDS011;3534;49.960;8.018;2022-09-01T10:57:53;2.90;;;2.23;;
6987;SDS011;3534;49.960;8.018;2022-09-01T11:03:33;4.27;;;2.10;;
6987;SDS011;3534;49.960;8.018;2022-09-01T11:06:05;3.37;;;2.10;;
6987;SDS011;3534;49.960;8.018;2022-09-01T11:08:40;5.30;;;2.10;;
6987;SDS011;3534;49.960;8.018;2022-09-01T11:11:11;4.03;;;2.23;;
6987;SDS011;3534;49.960;8.018;2022-09-01T11:13:53;2.40;;;2.20;;
6987;SDS011;3534;49.960;8.018;2022-09-01T11:16:26;2.60;;;2.30;;
6987;SDS011;3534;49.960;8.018;2022-09-01T11:22:06;3.00;;;2.00;;
6987;SDS011;3534;49.960;8.018;2022-09-01T11:24:44;3.00;;;2.20;;
6987;SDS011;3534;49.960;8.018;2022-09-01T11:30:16;3.07;;;2.17;;
6987;SDS011;3534;49.960;8.018;2022-09-01T11:32:45;2.20;;;2.00;;
6987;SDS011;3534;49.960;8.018;2022-09-01T11:35:18;2.07;;;1.90;;
6987;SDS011;3534;49.960;8.018;2022-09-01T11:37:47;2.30;;;1.70;;
6987;SDS011;3534;49.960;8.018;2022-09-01T11:40:19;1.90;;;1.80;;
6987;SDS011;3534;49.960;8.018;2022-09-01T11:42:48;5.10;;;2.07;;
6987;SDS011;3534;49.960;8.018;2022-09-01T11:45:17;4.17;;;2.23;;
6987;SDS011;3534;49.960;8.018;2022-09-01T11:47:47;3.80;;;2.23;;
6987;SDS011;3534;49.960;8.018;2022-09-01T11:50:19;3.10;;;2.47;;
6987;SDS011;3534;49.960;8.018;2022-09-01T11:52:51;3.97;;;2.10;;
6987;SDS011;3534;49.960;8.018;2022-09-01T11:55:27;7.73;;;2.30;;
6987;SDS011;3534;49.960;8.018;2022-09-01T11:57:55;3.67;;;1.77;;
6987;SDS011;3534;49.960;8.018;2022-09-01T12:00:24;2.70;;;1.73;;
6987;SDS011;3534;49.960;8.018;2022-09-01T12:02:52;3.90;;;2.03;;
6987;SDS011;3534;49.960;8.018;2022-09-01T12:05:26;2.07;;;1.70;;
6987;SDS011;3534;49.960;8.018;2022-09-01T12:07:56;2.10;;;1.90;;
6987;SDS011;3534;49.960;8.018;2022-09-01T12:10:28;2.77;;;2.17;;
6987;SDS011;3534;49.960;8.018;2022-09-01T12:13:02;2.13;;;1.90;;
6987;SDS011;3534;49.960;8.018;2022-09-01T12:15:31;2.13;;;1.93;;
6987;SDS011;3534;49.960;8.018;2022-09-01T12:18:11;2.87;;;1.93;;
6987;SDS011;3534;49.960;8.018;2022-09-01T12:20:42;1.83;;;1.73;;
6987;SDS011;3534;49.960;8.018;2022-09-01T12:23:15;2.30;;;2.10;;
6987;SDS011;3534;49.960;8.018;2022-09-01T12:25:47;4.93;;;1.90;;
6987;SDS011;3534;49.960;8.018;2022-09-01T12:28:14;2.43;;;1.83;;
6987;SDS011;3534;49.960;8.018;2022-09-01T12:30:41;8.83;;;2.17;;
6987;SDS011;3534;49.960;8.018;2022-09-01T12:33:09;2.17;;;1.70;;
6987;SDS011;3534;49.960;8.018;2022-09-01T12:35:38;4.83;;;1.90;;
6987;SDS011;3534;49.960;8.018;2022-09-01T12:38:22;5.10;;;1.63;;
6987;SDS011;3534;49.960;8.018;2022-09-01T12:40:53;1.90;;;1.80;;
6987;SDS011;3534;49.960;8.018;2022-09-01T12:43:32;2.00;;;1.90;;
6987;SDS011;3534;49.960;8.018;2022-09-01T12:46:00;3.30;;;2.00;;
6987;SDS011;3534;49.960;8.018;2022-09-01T12:48:29;2.72;;;1.90;;
6987;SDS011;3534;49.960;8.018;2022-09-01T12:50:58;2.17;;;1.80;;
6987;SDS011;3534;49.960;8.018;2022-09-01T12:53:29;2.10;;;1.90;;
6987;SDS011;3534;49.960;8.018;2022-09-01T12:56:02;6.60;;;2.15;;
6987;SDS011;3534;49.960;8.018;2022-09-01T12:58:31;3.03;;;1.65;;
6987;SDS011;3534;49.960;8.018;2022-09-01T13:01:00;2.05;;;1.88;;
6987;SDS011;3534;49.960;8.018;2022-09-01T13:03:30;3.67;;;1.52;;
6987;SDS011;3534;49.960;8.018;2022-09-01T13:05:58;1.75;;;1.42;;
6987;SDS011;3534;49.960;8.018;2022-09-01T13:08:27;2.45;;;1.60;;
6987;SDS011;3534;49.960;8.018;2022-09-01T13:10:57;1.75;;;1.50;;
6987;SDS011;3534;49.960;8.018;2022-09-01T13:13:28;5.43;;;2.28;;
6987;SDS011;3534;49.960;8.018;2022-09-01T13:15:56;2.78;;;1.67;;
6987;SDS011;3534;49.960;8.018;2022-09-01T13:18:25;3.30;;;1.98;;
6987;SDS011;3534;49.960;8.018;2022-09-01T13:20:52;3.20;;;1.60;;
6987;SDS011;3534;49.960;8.018;2022-09-01T13:23:20;4.00;;;1.77;;
6987;SDS011;3534;49.960;8.018;2022-09-01T13:25:49;2.42;;;1.27;;
6987;SDS011;3534;49.960;8.018;2022-09-01T13:28:15;2.88;;;1.70;;
6987;SDS011;3534;49.960;8.018;2022-09-01T13:30:43;2.70;;;1.85;;
6987;SDS011;3534;49.960;8.018;2022-09-01T13:33:13;3.38;;;1.67;;
6987;SDS011;3534;49.960;8.018;2022-09-01T13:35:40;2.28;;;1.63;;
6987;SDS011;3534;49.960;8.018;2022-09-01T13:38:06;1.80;;;1.67;;
6987;SDS011;3534;49.960;8.018;2022-09-01T13:40:33;1.92;;;1.50;;
6987;SDS011;3534;49.960;8.018;2022-09-01T13:43:01;4.10;;;1.95;;
6987;SDS011;3534;49.960;8.018;2022-09-01T13:45:28;4.43;;;1.95;;
6987;SDS011;3534;49.960;8.018;2022-09-01T13:47:55;5.88;;;1.90;;
6987;SDS011;3534;49.960;8.018;2022-09-01T13:50:22;2.05;;;1.67;;
6987;SDS011;3534;49.960;8.018;2022-09-01T13:52:51;1.92;;;1.63;;
6987;SDS011;3534;49.960;8.018;2022-09-01T13:55:20;2.03;;;1.83;;
6987;SDS011;3534;49.960;8.018;2022-09-01T13:57:48;2.10;;;2.00;;
6987;SDS011;3534;49.960;8.018;2022-09-01T14:00:18;1.52;;;1.40;;
6987;SDS011;3534;49.960;8.018;2022-09-01T14:02:48;3.92;;;1.70;;
6987;SDS011;3534;49.960;8.018;2022-09-01T14:05:18;2.40;;;1.40;;
6987;SDS011;3534;49.960;8.018;2022-09-01T14:07:46;2.85;;;1.83;;
6987;SDS011;3534;49.960;8.018;2022-09-01T14:10:13;1.75;;;1.65;;
6987;SDS011;3534;49.960;8.018;2022-09-01T14:12:40;3.00;;;1.70;;
6987;SDS011;3534;49.960;8.018;2022-09-01T14:15:09;2.50;;;1.95;;
6987;SDS011;3534;49.960;8.018;2022-09-01T14:17:38;3.80;;;1.90;;
6987;SDS011;3534;49.960;8.018;2022-09-01T14:20:05;2.05;;;1.85;;
6987;SDS011;3534;49.960;8.018;2022-09-01T14:22:33;2.40;;;1.53;;
6987;SDS011;3534;49.960;8.018;2022-09-01T14:25:00;1.63;;;1.52;;
6987;SDS011;3534;49.960;8.018;2022-09-01T14:27:27;3.17;;;1.85;;
6987;SDS011;3534;49.960;8.018;2022-09-01T14:29:53;3.37;;;1.70;;
6987;SDS011;3534;49.960;8.018;2022-09-01T14:32:20;6.95;;;1.98;;
6987;SDS011;3534;49.960;8.018;2022-09-01T14:34:52;2.30;;;1.57;;
6987;SDS011;3534;49.960;8.018;2022-09-01T14:37:19;3.23;;;1.97;;
6987;SDS011;3534;49.960;8.018;2022-09-01T14:39:47;2.20;;;1.53;;
6987;SDS011;3534;49.960;8.018;2022-09-01T14:42:15;1.63;;;1.33;;
6987;SDS011;3534;49.960;8.018;2022-09-01T14:44:42;3.77;;;1.77;;
6987;SDS011;3534;49.960;8.018;2022-09-01T14:47:09;1.73;;;1.63;;
6987;SDS011;3534;49.960;8.018;2022-09-01T14:49:36;1.63;;;1.53;;
6987;SDS011;3534;49.960;8.018;2022-09-01T14:52:05;2.37;;;1.77;;
6987;SDS011;3534;49.960;8.018;2022-09-01T14:54:33;2.80;;;1.90;;
6987;SDS011;3534;49.960;8.018;2022-09-01T14:57:00;1.80;;;1.40;;
6987;SDS011;3534;49.960;8.018;2022-09-01T14:59:27;6.60;;;1.90;;
6987;SDS011;3534;49.960;8.018;2022-09-01T15:01:54;4.80;;;1.67;;
6987;SDS011;3534;49.960;8.018;2022-09-01T15:04:20;7.60;;;2.23;;
6987;SDS011;3534;49.960;8.018;2022-09-01T15:06:47;2.10;;;1.90;;
6987;SDS011;3534;49.960;8.018;2022-09-01T15:09:15;3.00;;;1.50;;
6987;SDS011;3534;49.960;8.018;2022-09-01T15:11:42;1.80;;;1.70;;
6987;SDS011;3534;49.960;8.018;2022-09-01T15:14:09;2.30;;;1.83;;
6987;SDS011;3534;49.960;8.018;2022-09-01T15:16:35;3.08;;;1.63;;
6987;SDS011;3534;49.960;8.018;2022-09-01T15:19:05;4.28;;;1.80;;
6987;SDS011;3534;49.960;8.018;2022-09-01T15:21:34;1.75;;;1.42;;
6987;SDS011;3534;49.960;8.018;2022-09-01T15:24:01;3.42;;;2.00;;
6987;SDS011;3534;49.960;8.018;2022-09-01T15:26:30;2.22;;;1.80;;
6987;SDS011;3534;49.960;8.018;2022-09-01T15:28:56;2.50;;;1.73;;
6987;SDS011;3534;49.960;8.018;2022-09-01T15:31:24;4.35;;;1.52;;
6987;SDS011;3534;49.960;8.018;2022-09-01T15:33:53;2.60;;;1.42;;
6987;SDS011;3534;49.960;8.018;2022-09-01T15:36:21;2.13;;;1.40;;
6987;SDS011;3534;49.960;8.018;2022-09-01T15:38:50;2.78;;;1.67;;
6987;SDS011;3534;49.960;8.018;2022-09-01T15:41:18;2.78;;;1.63;;
6987;SDS011;3534;49.960;8.018;2022-09-01T15:43:47;1.83;;;1.65;;
6987;SDS011;3534;49.960;8.018;2022-09-01T15:46:14;1.63;;;1.52;;
6987;SDS011;3534;49.960;8.018;2022-09-01T15:48:42;1.88;;;1.60;;